Time;durP1;ratioP1;P1;durP2;ratioP2;P2;SDS_P1;SDS_P2;PMS_P1;PMS_P2;Temp;Humidity;BMP_temperature;BMP_pressure;BME280_temperature;BME280_humidity;BME280_pressure;Samples;Min_cycle;Max_cycle;Signal;HPM_P1;HPM_P2
2022/05/16 00:00:11;;;;;;;1.50;1.40;;;27.00;38.90;;;;;;5050442;28;21005;-78
2022/05/16 00:02:39;;;;;;;1.60;1.50;;;27.00;38.80;;;;;;5052694;28;20522;-78
2022/05/16 00:05:07;;;;;;;1.47;1.10;;;27.00;38.90;;;;;;5052681;28;20468;-78
2022/05/16 00:07:36;;;;;;;1.57;1.47;;;27.00;38.90;;;;;;5052481;28;20511;-79
2022/05/16 00:10:06;;;;;;;1.90;1.40;;;27.00;38.90;;;;;;5052547;28;20545;-78
2022/05/16 00:12:34;;;;;;;2.37;1.63;;;27.00;38.80;;;;;;5052388;28;20907;-78
2022/05/16 00:15:02;;;;;;;2.60;1.57;;;27.00;38.80;;;;;;5051513;28;20472;-77
2022/05/16 00:17:30;;;;;;;1.97;1.40;;;27.00;38.80;;;;;;5045004;28;20467;-78
2022/05/16 00:19:58;;;;;;;2.90;1.67;;;27.00;38.80;;;;;;5052140;28;20466;-78
2022/05/16 00:22:27;;;;;;;3.07;1.70;;;26.90;38.80;;;;;;5052498;28;20498;-78
2022/05/16 00:24:55;;;;;;;2.30;1.47;;;26.90;38.70;;;;;;5052317;28;20541;-78
2022/05/16 00:27:24;;;;;;;1.40;1.40;;;26.90;38.80;;;;;;5052322;28;20525;-78
2022/05/16 00:29:52;;;;;;;1.70;1.60;;;26.90;38.80;;;;;;5052972;28;20437;-78
2022/05/16 00:32:23;;;;;;;1.97;1.77;;;26.90;38.70;;;;;;5049613;28;20458;-79
2022/05/16 00:34:51;;;;;;;1.63;1.53;;;26.80;38.70;;;;;;5036568;28;20442;-79
2022/05/16 00:37:19;;;;;;;1.67;1.53;;;26.80;38.70;;;;;;5054339;28;20474;-79
2022/05/16 00:39:47;;;;;;;1.43;1.37;;;26.80;38.70;;;;;;5058458;28;20502;-78
2022/05/16 00:42:14;;;;;;;1.53;1.43;;;26.80;38.70;;;;;;5057992;28;20510;-79
2022/05/16 00:44:43;;;;;;;1.77;1.60;;;26.80;38.80;;;;;;5058535;28;20494;-80
2022/05/16 00:47:11;;;;;;;1.60;1.50;;;26.80;38.60;;;;;;5044384;28;20442;-79
2022/05/16 00:49:42;;;;;;;1.30;1.30;;;26.80;38.60;;;;;;5053548;28;20455;-79
2022/05/16 00:52:11;;;;;;;1.57;1.40;;;26.70;38.50;;;;;;5051022;28;20475;-79
2022/05/16 00:54:41;;;;;;;1.50;1.40;;;26.70;38.60;;;;;;5057558;28;20517;-79
2022/05/16 00:57:11;;;;;;;7.03;1.23;;;26.70;38.70;;;;;;5059101;28;20497;-79
2022/05/16 00:59:42;;;;;;;1.57;1.47;;;26.70;38.60;;;;;;5059373;28;20432;-79
2022/05/16 01:04:57;;;;;;;1.30;1.20;;;26.70;38.60;;;;;;5059718;28;20455;-79
2022/05/16 01:07:27;;;;;;;1.43;1.33;;;26.60;38.60;;;;;;5051641;28;20475;-79
2022/05/16 01:09:54;;;;;;;1.30;1.20;;;26.60;38.60;;;;;;5058079;28;20520;-78
2022/05/16 01:12:24;;;;;;;1.57;1.47;;;26.60;38.60;;;;;;5058443;28;20441;-79
2022/05/16 01:14:53;;;;;;;2.13;1.27;;;26.60;38.60;;;;;;5058943;28;20498;-79
2022/05/16 01:17:22;;;;;;;1.70;1.50;;;26.60;38.50;;;;;;5059708;28;20509;-79
2022/05/16 01:19:50;;;;;;;1.70;1.60;;;26.60;38.60;;;;;;5058360;28;20486;-79
2022/05/16 01:22:24;;;;;;;1.50;1.40;;;26.60;38.70;;;;;;5051244;28;20542;-78
2022/05/16 01:24:52;;;;;;;1.57;1.47;;;26.60;38.50;;;;;;5057197;28;20497;-78
2022/05/16 01:27:20;;;;;;;1.73;1.63;;;26.60;38.60;;;;;;5057651;28;20435;-79
2022/05/16 01:29:48;;;;;;;1.80;1.70;;;26.60;38.50;;;;;;5058537;28;20429;-79
2022/05/16 01:32:16;;;;;;;1.50;1.40;;;26.50;38.50;;;;;;5057768;28;20409;-78
2022/05/16 01:34:44;;;;;;;1.40;1.20;;;26.50;38.60;;;;;;5057338;28;20484;-79
2022/05/16 01:37:12;;;;;;;3.80;1.70;;;26.50;38.60;;;;;;5059033;28;20512;-79
2022/05/16 01:39:41;;;;;;;1.87;1.70;;;26.50;38.60;;;;;;5054715;28;20508;-79
2022/05/16 01:42:14;;;;;;;1.73;1.63;;;26.40;38.50;;;;;;5059487;28;20500;-79
2022/05/16 01:44:42;;;;;;;1.60;1.50;;;26.40;38.50;;;;;;5059110;28;20451;-79
2022/05/16 01:47:10;;;;;;;2.30;1.63;;;26.40;38.60;;;;;;5062643;28;20486;-79
2022/05/16 01:49:38;;;;;;;2.30;1.40;;;26.40;38.70;;;;;;5061630;28;20535;-78
2022/05/16 01:52:06;;;;;;;2.30;1.77;;;26.40;38.60;;;;;;5065266;28;20420;-80
2022/05/16 01:54:34;;;;;;;1.00;1.00;;;26.40;38.50;;;;;;5063830;28;20445;-79
2022/05/16 01:57:03;;;;;;;2.50;1.37;;;26.40;38.40;;;;;;5058304;28;20440;-80
2022/05/16 01:59:31;;;;;;;3.47;1.30;;;26.30;38.50;;;;;;5065007;28;20520;-81
2022/05/16 02:01:59;;;;;;;2.90;1.83;;;26.30;38.50;;;;;;5074429;28;20441;-81
2022/05/16 02:04:27;;;;;;;2.10;1.70;;;26.30;38.50;;;;;;5076312;28;20467;-81
2022/05/16 02:06:55;;;;;;;2.80;1.57;;;26.30;38.50;;;;;;5073449;28;20489;-81
2022/05/16 02:09:23;;;;;;;2.33;1.63;;;26.30;38.60;;;;;;5073807;28;20436;-81
2022/05/16 02:11:51;;;;;;;2.07;1.50;;;26.30;38.60;;;;;;5071092;28;20463;-80
2022/05/16 02:14:22;;;;;;;2.17;1.70;;;26.30;38.50;;;;;;5067942;28;20516;-81
2022/05/16 02:16:50;;;;;;;1.40;1.30;;;26.30;38.50;;;;;;5039369;28;20531;-79
2022/05/16 02:19:18;;;;;;;1.63;1.53;;;26.30;38.50;;;;;;5034648;28;20468;-79
2022/05/16 02:24:40;;;;;;;1.40;1.30;;;26.20;38.40;;;;;;5048074;28;20437;-81
2022/05/16 02:27:08;;;;;;;1.73;1.60;;;26.30;38.60;;;;;;5038418;28;20484;-79
2022/05/16 02:29:37;;;;;;;1.50;1.40;;;26.20;38.50;;;;;;5042906;28;20516;-78
2022/05/16 02:32:06;;;;;;;1.40;1.30;;;26.20;38.60;;;;;;5054056;28;20517;-78
2022/05/16 02:34:34;;;;;;;2.90;1.30;;;26.20;38.60;;;;;;5054606;28;20512;-80
2022/05/16 02:37:02;;;;;;;2.00;1.53;;;26.20;38.60;;;;;;5063372;28;20417;-80
2022/05/16 02:39:30;;;;;;;3.27;1.63;;;26.20;38.40;;;;;;5061266;28;20520;-79
2022/05/16 02:41:58;;;;;;;1.40;1.30;;;26.10;38.50;;;;;;5063396;28;20449;-80
2022/05/16 02:44:26;;;;;;;1.90;1.40;;;26.10;38.50;;;;;;5062610;28;20470;-79
2022/05/16 02:46:55;;;;;;;1.20;1.10;;;26.20;38.60;;;;;;5059962;28;20478;-80
2022/05/16 02:49:23;;;;;;;2.47;1.40;;;26.10;38.40;;;;;;5062107;28;20425;-79
2022/05/16 02:51:52;;;;;;;1.67;1.57;;;26.10;38.50;;;;;;5062444;28;20443;-80
2022/05/16 02:54:20;;;;;;;1.63;1.10;;;26.10;38.60;;;;;;5063745;28;20417;-81
2022/05/16 02:56:48;;;;;;;1.30;1.20;;;26.10;38.60;;;;;;5062286;28;20445;-78
2022/05/16 02:59:17;;;;;;;1.90;1.30;;;26.00;38.60;;;;;;5062653;28;20463;-80
2022/05/16 03:01:45;;;;;;;1.60;1.47;;;26.00;38.50;;;;;;5056189;28;20486;-78
2022/05/16 03:04:14;;;;;;;1.67;1.57;;;26.00;38.60;;;;;;5062378;28;20447;-80
2022/05/16 03:06:43;;;;;;;1.70;1.30;;;26.00;38.70;;;;;;5062196;28;20506;-80
2022/05/16 03:09:11;;;;;;;1.50;1.40;;;26.00;38.60;;;;;;5063445;28;20409;-80
2022/05/16 03:11:39;;;;;;;2.00;1.43;;;26.00;38.70;;;;;;5063135;28;20466;-79
2022/05/16 03:14:07;;;;;;;1.90;1.40;;;25.90;38.50;;;;;;5063221;28;20518;-80
2022/05/16 03:16:36;;;;;;;1.70;1.60;;;25.90;38.60;;;;;;5063108;28;20452;-81
2022/05/16 03:19:04;;;;;;;2.90;1.77;;;25.90;38.50;;;;;;5050935;28;20433;-78
2022/05/16 03:21:34;;;;;;;3.43;1.63;;;25.90;38.60;;;;;;5056625;28;20433;-80
2022/05/16 03:24:02;;;;;;;1.50;1.50;;;25.90;38.60;;;;;;5069357;28;20443;-81
2022/05/16 03:26:30;;;;;;;1.50;1.40;;;25.90;38.60;;;;;;5070862;28;20420;-81
2022/05/16 03:28:58;;;;;;;1.67;1.57;;;25.90;38.60;;;;;;5071134;28;20456;-79
2022/05/16 03:31:26;;;;;;;2.40;1.53;;;25.90;38.60;;;;;;5071322;28;20429;-79
2022/05/16 03:33:54;;;;;;;1.70;1.60;;;25.90;38.50;;;;;;5069676;28;20444;-80
2022/05/16 03:36:24;;;;;;;1.50;1.40;;;25.90;38.60;;;;;;5064863;28;20510;-80
2022/05/16 03:41:39;;;;;;;1.67;1.57;;;25.90;38.60;;;;;;5065337;28;20484;-80
2022/05/16 03:44:07;;;;;;;1.53;1.43;;;25.90;38.60;;;;;;5068143;28;20425;-80
2022/05/16 03:46:35;;;;;;;1.60;1.50;;;25.80;38.50;;;;;;5070663;28;20436;-81
2022/05/16 03:49:04;;;;;;;1.57;1.40;;;25.90;38.60;;;;;;5071662;28;20442;-80
2022/05/16 03:51:32;;;;;;;1.53;1.43;;;25.80;38.50;;;;;;5071658;28;20449;-80
2022/05/16 03:54:01;;;;;;;1.60;1.50;;;25.80;38.50;;;;;;5066803;28;20480;-80
2022/05/16 03:56:29;;;;;;;4.50;1.40;;;25.80;38.50;;;;;;5072164;28;20426;-81
2022/05/16 03:58:57;;;;;;;1.30;1.20;;;25.80;38.60;;;;;;5071280;28;20413;-81
2022/05/16 04:01:25;;;;;;;1.43;1.33;;;25.80;38.60;;;;;;5070866;28;20469;-80
2022/05/16 04:03:54;;;;;;;1.30;1.20;;;25.70;38.50;;;;;;5069617;28;20413;-80
2022/05/16 04:06:22;;;;;;;1.50;1.40;;;25.70;38.40;;;;;;5070473;28;20498;-81
2022/05/16 04:08:50;;;;;;;1.73;1.63;;;25.70;38.50;;;;;;5071563;28;20475;-81
2022/05/16 04:11:19;;;;;;;2.00;1.37;;;25.70;38.60;;;;;;5064367;28;20467;-80
2022/05/16 04:13:48;;;;;;;1.83;1.70;;;25.70;38.60;;;;;;5068800;28;20500;-80
2022/05/16 04:16:16;;;;;;;1.53;1.43;;;25.70;38.50;;;;;;5070018;28;20430;-80
2022/05/16 04:18:46;;;;;;;1.70;1.60;;;25.70;38.50;;;;;;5070720;28;20446;-81
2022/05/16 04:21:14;;;;;;;1.33;1.23;;;25.70;38.50;;;;;;5069938;28;20441;-80
2022/05/16 04:23:42;;;;;;;1.40;1.40;;;25.70;38.60;;;;;;5070431;28;20417;-81
2022/05/16 04:26:10;;;;;;;1.33;1.23;;;25.70;38.50;;;;;;5070108;28;20421;-81
2022/05/16 04:28:39;;;;;;;2.20;1.70;;;25.70;38.40;;;;;;5064924;28;20425;-81
2022/05/16 04:31:08;;;;;;;1.33;1.23;;;25.70;38.50;;;;;;5069558;28;20440;-80
2022/05/16 04:33:36;;;;;;;2.00;1.87;;;25.70;38.50;;;;;;5069287;28;20453;-80
2022/05/16 04:36:04;;;;;;;1.80;1.53;;;25.70;38.50;;;;;;5070078;28;20501;-81
2022/05/16 04:38:32;;;;;;;1.80;1.27;;;25.70;38.50;;;;;;5070962;28;20413;-81
2022/05/16 04:43:47;;;;;;;1.57;1.47;;;25.60;38.40;;;;;;5058593;28;20446;-79
2022/05/16 04:46:15;;;;;;;1.70;1.60;;;25.60;38.50;;;;;;5066607;28;20396;-81
2022/05/16 04:48:43;;;;;;;2.10;1.67;;;25.60;38.50;;;;;;5066661;28;20482;-80
2022/05/16 04:51:11;;;;;;;3.00;1.90;;;25.60;38.40;;;;;;5069327;28;20428;-81
2022/05/16 04:53:39;;;;;;;2.10;1.60;;;25.60;38.40;;;;;;5060016;28;20537;-79
2022/05/16 04:56:07;;;;;;;1.70;1.60;;;25.60;38.40;;;;;;5055142;28;20504;-80
2022/05/16 04:58:36;;;;;;;1.77;1.67;;;25.60;38.30;;;;;;5059204;28;20484;-79
2022/05/16 05:01:05;;;;;;;2.00;1.40;;;25.60;38.40;;;;;;5052623;28;20542;-79
2022/05/16 05:03:34;;;;;;;1.40;1.30;;;25.60;38.50;;;;;;5059730;28;20439;-80
2022/05/16 05:06:02;;;;;;;1.53;1.53;;;25.60;38.40;;;;;;5059967;28;20413;-80
2022/05/16 05:08:30;;;;;;;1.93;1.53;;;25.60;38.40;;;;;;5059788;28;20421;-80
2022/05/16 05:16:30;;;;;;;1.83;1.37;;;25.60;38.40;;;;;;5060486;28;20468;-80
2022/05/16 05:18:58;;;;;;;2.03;1.50;;;25.60;39.00;;;;;;5055682;28;20870;-80
2022/05/16 05:21:27;;;;;;;1.50;1.30;;;25.60;38.40;;;;;;5054199;28;20520;-80
2022/05/16 05:24:00;;;;;;;1.53;1.40;;;25.60;38.30;;;;;;5043472;28;20409;-80
2022/05/16 05:26:28;;;;;;;2.10;1.47;;;25.60;38.40;;;;;;5053785;28;20546;-80
2022/05/16 05:28:56;;;;;;;1.40;1.30;;;25.60;38.30;;;;;;5061840;28;20424;-80
2022/05/16 05:31:26;;;;;;;1.60;1.50;;;25.60;38.20;;;;;;5062962;28;20505;-79
2022/05/16 05:33:56;;;;;;;3.37;2.00;;;25.60;38.30;;;;;;5062575;28;20481;-79
2022/05/16 05:36:25;;;;;;;1.53;1.43;;;25.70;38.40;;;;;;5057233;28;20581;-79
2022/05/16 05:38:53;;;;;;;1.60;1.50;;;25.70;38.20;;;;;;5061402;28;20428;-79
2022/05/16 05:41:22;;;;;;;4.00;1.57;;;25.70;38.20;;;;;;5065784;28;20481;-80
2022/05/16 05:43:50;;;;;;;3.50;1.93;;;25.70;38.20;;;;;;5059230;28;20503;-79
2022/05/16 05:46:18;;;;;;;9.40;1.83;;;25.70;38.20;;;;;;5061441;28;20425;-79
2022/05/16 05:48:47;;;;;;;8.70;1.73;;;25.70;38.20;;;;;;5062941;28;20450;-80
2022/05/16 05:51:16;;;;;;;8.70;2.10;;;25.70;38.10;;;;;;5063498;28;20465;-79
2022/05/16 05:53:44;;;;;;;6.90;2.00;;;25.70;38.10;;;;;;5049764;28;20517;-79
2022/05/16 05:56:13;;;;;;;9.70;1.97;;;25.80;38.10;;;;;;5056536;28;20529;-79
2022/05/16 05:58:42;;;;;;;12.23;2.60;;;25.80;38.20;;;;;;5061819;28;20445;-79
2022/05/16 06:01:10;;;;;;;3.93;2.10;;;25.80;38.10;;;;;;5063000;28;20491;-79
2022/05/16 06:03:39;;;;;;;4.20;1.70;;;25.80;38.10;;;;;;5062071;28;20453;-80
2022/05/16 06:06:07;;;;;;;10.30;2.10;;;25.80;38.10;;;;;;5063009;28;20458;-79
2022/05/16 06:08:36;;;;;;;3.10;1.77;;;25.90;38.10;;;;;;5060339;28;20490;-79
2022/05/16 06:11:04;;;;;;;4.10;2.00;;;25.90;38.00;;;;;;5062732;28;20441;-79
2022/05/16 06:13:32;;;;;;;3.80;1.70;;;25.90;38.00;;;;;;5063698;28;20421;-79
2022/05/16 06:16:01;;;;;;;3.77;2.00;;;25.90;38.10;;;;;;5064436;28;20470;-80
2022/05/16 06:18:29;;;;;;;8.53;1.80;;;25.90;38.10;;;;;;5063039;28;20452;-80
2022/05/16 06:20:56;;;;;;;4.27;1.70;;;25.90;38.00;;;;;;5063718;28;20452;-80
2022/05/16 06:23:25;;;;;;;4.30;1.70;;;25.90;38.10;;;;;;5063897;28;20467;-80
2022/05/16 06:25:54;;;;;;;6.67;1.90;;;25.90;37.90;;;;;;5064489;28;20417;-80
2022/05/16 06:28:23;;;;;;;3.53;1.97;;;25.90;38.00;;;;;;5055403;28;20425;-79
2022/05/16 06:30:52;;;;;;;3.50;1.80;;;25.90;37.90;;;;;;5061700;28;20533;-79
2022/05/16 06:33:21;;;;;;;4.30;1.90;;;26.00;37.90;;;;;;5061826;28;20467;-79
2022/05/16 06:35:49;;;;;;;2.73;1.53;;;26.00;37.90;;;;;;5062061;28;20983;-79
2022/05/16 06:38:20;;;;;;;3.87;1.50;;;26.00;37.90;;;;;;5064328;28;20445;-79
2022/05/16 06:40:48;;;;;;;7.93;1.67;;;26.00;37.90;;;;;;5062702;28;20466;-80
2022/05/16 06:43:18;;;;;;;1.73;1.60;;;26.10;37.80;;;;;;5055882;28;20455;-79
2022/05/16 06:45:46;;;;;;;2.00;1.57;;;26.10;37.80;;;;;;5063530;28;20431;-80
2022/05/16 06:48:14;;;;;;;4.80;2.23;;;26.10;37.80;;;;;;5062724;28;20515;-80
2022/05/16 06:50:42;;;;;;;5.13;1.97;;;26.20;37.90;;;;;;5062999;28;20474;-79
2022/05/16 06:53:12;;;;;;;4.53;1.70;;;26.20;37.70;;;;;;5061446;28;20442;-80
2022/05/16 06:55:40;;;;;;;2.40;1.50;;;26.20;37.70;;;;;;5062901;28;20474;-79
2022/05/16 06:58:08;;;;;;;5.70;1.63;;;26.20;37.60;;;;;;5062871;28;20473;-80
2022/05/16 07:00:37;;;;;;;2.20;1.77;;;26.30;37.60;;;;;;5057682;28;20546;-79
2022/05/16 07:03:05;;;;;;;2.90;1.87;;;26.30;37.60;;;;;;5062272;28;20447;-79
2022/05/16 07:05:45;;;;;;;3.30;2.10;;;26.30;37.50;;;;;;5059892;28;20484;-80
2022/05/16 07:08:13;;;;;;;1.57;1.30;;;26.40;37.60;;;;;;5062865;28;20443;-79
2022/05/16 07:10:40;;;;;;;3.27;1.53;;;26.40;37.50;;;;;;5063482;28;20486;-80
2022/05/16 07:13:09;;;;;;;3.03;1.57;;;26.40;37.40;;;;;;5063625;28;20448;-79
2022/05/16 07:15:38;;;;;;;5.70;1.73;;;26.50;37.40;;;;;;5060420;28;20421;-79
2022/05/16 07:18:06;;;;;;;3.13;2.10;;;26.50;37.30;;;;;;5062226;28;20567;-79
2022/05/16 07:20:37;;;;;;;1.73;1.63;;;26.50;37.30;;;;;;5063752;28;20897;-80
2022/05/16 07:23:05;;;;;;;2.73;1.90;;;26.60;37.30;;;;;;5064942;28;20454;-79
2022/05/16 07:27:56;;;;;;;2.37;1.63;;;26.50;37.50;;;;;;5064583;28;20474;-80
2022/05/16 07:28:20;;;;;;;2.03;1.87;;;26.60;37.20;;;;;;5064317;28;20469;-80
2022/05/16 07:30:50;;;;;;;1.90;1.80;;;26.60;37.10;;;;;;5065343;28;20493;-79
2022/05/16 07:33:18;;;;;;;2.03;1.60;;;26.60;37.00;;;;;;5065641;28;20440;-80
2022/05/16 07:35:50;;;;;;;2.80;1.90;;;26.70;37.10;;;;;;5058825;28;20507;-79
2022/05/16 07:38:18;;;;;;;3.00;1.67;;;26.80;37.10;;;;;;5064313;28;20433;-80
2022/05/16 07:40:46;;;;;;;3.13;1.70;;;26.80;37.00;;;;;;5062984;28;20485;-80
2022/05/16 07:43:15;;;;;;;4.40;1.93;;;26.90;37.00;;;;;;5063421;28;20470;-80
2022/05/16 07:45:43;;;;;;;2.03;1.80;;;26.90;36.80;;;;;;5063784;28;20417;-79
2022/05/16 07:48:13;;;;;;;1.97;1.77;;;27.00;36.70;;;;;;5064351;28;20446;-79
2022/05/16 07:50:41;;;;;;;2.03;1.60;;;27.00;36.60;;;;;;5063805;28;20476;-80
2022/05/16 07:53:11;;;;;;;4.60;2.10;;;27.10;36.60;;;;;;5059750;28;20450;-80
2022/05/16 07:55:40;;;;;;;3.77;1.80;;;27.20;36.40;;;;;;5062375;28;20434;-79
2022/05/16 07:58:08;;;;;;;3.23;1.73;;;27.30;36.30;;;;;;5061508;28;20471;-80
2022/05/16 08:00:36;;;;;;;2.80;1.97;;;27.30;36.10;;;;;;5062920;28;20462;-80
2022/05/16 08:03:05;;;;;;;3.60;1.57;;;27.40;36.30;;;;;;5062575;28;20469;-80
2022/05/16 08:05:35;;;;;;;6.83;1.70;;;27.40;36.00;;;;;;5062137;28;20458;-80
2022/05/16 08:10:48;;;;;;;3.47;2.10;;;27.50;36.00;;;;;;5060760;28;20453;-79
2022/05/16 08:13:15;;;;;;;4.73;1.70;;;27.60;35.90;;;;;;5061286;28;20445;-80
2022/05/16 08:15:43;;;;;;;2.10;1.50;;;27.60;35.90;;;;;;5063105;28;20506;-80
2022/05/16 08:18:12;;;;;;;1.80;1.70;;;27.70;35.80;;;;;;5063431;28;20486;-79
2022/05/16 08:20:43;;;;;;;1.90;1.80;;;27.70;35.80;;;;;;5062335;28;20502;-80
2022/05/16 08:23:11;;;;;;;2.60;1.70;;;27.80;35.80;;;;;;5061825;28;20393;-80
2022/05/16 08:25:39;;;;;;;2.57;1.50;;;27.80;35.60;;;;;;5056854;28;20429;-80
2022/05/16 08:28:07;;;;;;;2.03;1.70;;;27.90;35.70;;;;;;5061746;28;20394;-79
2022/05/16 08:30:35;;;;;;;2.17;1.97;;;27.90;35.50;;;;;;5065126;28;20456;-80
2022/05/16 08:33:03;;;;;;;3.47;1.70;;;28.00;35.50;;;;;;5067456;28;20463;-80
2022/05/16 08:35:31;;;;;;;2.40;1.60;;;28.10;35.60;;;;;;5063022;28;20440;-80
2022/05/16 08:40:54;;;;;;;2.00;1.67;;;28.10;35.40;;;;;;5061303;28;20467;-79
2022/05/16 08:43:35;;;;;;;2.03;1.83;;;28.20;35.30;;;;;;5052017;28;20481;-79
2022/05/16 08:46:04;;;;;;;2.20;1.60;;;28.30;35.30;;;;;;5056854;28;20538;-79
2022/05/16 08:48:34;;;;;;;3.77;1.87;;;28.30;35.10;;;;;;5056594;28;20513;-78
2022/05/16 08:51:05;;;;;;;1.77;1.67;;;28.40;35.20;;;;;;5052711;28;20956;-77
2022/05/16 08:53:38;;;;;;;1.50;1.40;;;28.40;35.10;;;;;;5053294;28;20418;-78
2022/05/16 08:56:08;;;;;;;6.13;1.70;;;28.50;35.10;;;;;;5048829;28;20458;-78
2022/05/16 08:58:38;;;;;;;6.77;1.60;;;28.50;35.00;;;;;;5047393;28;20480;-79
2022/05/16 09:01:07;;;;;;;2.70;1.63;;;28.60;35.20;;;;;;5054683;28;20497;-78
2022/05/16 09:03:37;;;;;;;3.23;2.07;;;28.70;35.30;;;;;;5060296;28;20446;-78
2022/05/16 09:06:12;;;;;;;5.00;1.83;;;28.80;35.40;;;;;;5042862;28;20434;-78
2022/05/16 09:08:46;;;;;;;4.47;2.17;;;28.80;35.40;;;;;;5041649;28;20618;-79
2022/05/16 09:11:15;;;;;;;2.87;2.03;;;28.80;35.40;;;;;;5052160;28;20549;-79
2022/05/16 09:13:50;;;;;;;5.53;1.93;;;28.90;35.50;;;;;;5063507;28;20453;-79
2022/05/16 09:16:39;;;;;;;4.83;1.70;;;28.90;35.40;;;;;;5059591;28;20503;-79
2022/05/16 09:19:29;;;;;;;2.80;1.73;;;29.00;35.30;;;;;;5050715;28;20492;-78
2022/05/16 09:22:02;;;;;;;3.87;2.07;;;29.10;35.30;;;;;;5037312;28;20447;-78
2022/05/16 09:24:35;;;;;;;6.23;2.07;;;29.10;35.20;;;;;;5036863;28;20521;-78
2022/05/16 09:27:07;;;;;;;2.93;1.90;;;29.10;35.00;;;;;;5050608;28;20447;-78
2022/05/16 09:29:39;;;;;;;2.57;1.87;;;29.20;35.00;;;;;;5053726;28;20621;-78
2022/05/16 09:32:09;;;;;;;4.73;2.23;;;29.20;34.90;;;;;;5036412;28;20434;-79
2022/05/16 09:34:37;;;;;;;4.37;1.87;;;29.20;34.70;;;;;;5040547;28;20451;-78
2022/05/16 09:37:05;;;;;;;3.10;2.20;;;29.30;34.60;;;;;;5055261;28;20526;-78
2022/05/16 09:39:36;;;;;;;3.47;2.20;;;29.30;34.50;;;;;;5055797;28;20852;-78
2022/05/16 09:42:05;;;;;;;2.70;2.10;;;29.40;34.50;;;;;;5048139;28;20493;-79
2022/05/16 09:44:34;;;;;;;3.23;1.80;;;29.40;34.40;;;;;;5036654;28;20513;-79
2022/05/16 09:47:18;;;;;;;2.97;1.90;;;29.40;34.20;;;;;;5036135;28;20530;-78
2022/05/16 09:49:47;;;;;;;2.50;2.13;;;29.50;34.30;;;;;;5035848;28;20489;-78
2022/05/16 09:52:16;;;;;;;3.60;2.20;;;29.50;34.10;;;;;;5044382;28;20450;-78
2022/05/16 09:54:46;;;;;;;5.07;2.10;;;29.60;34.00;;;;;;5055276;28;20534;-78
2022/05/16 09:57:17;;;;;;;2.13;1.73;;;29.60;33.90;;;;;;5053657;28;20525;-78
2022/05/16 09:59:48;;;;;;;2.00;1.70;;;29.60;33.80;;;;;;5035470;28;20555;-78
2022/05/16 10:02:21;;;;;;;3.50;1.83;;;29.60;33.70;;;;;;5035497;28;20467;-79
2022/05/16 10:04:58;;;;;;;3.43;1.87;;;29.70;33.60;;;;;;5036002;28;20447;-78
2022/05/16 10:07:31;;;;;;;4.50;1.90;;;29.70;33.80;;;;;;5053266;28;21110;-78
2022/05/16 10:10:01;;;;;;;4.27;2.00;;;29.70;33.50;;;;;;5051325;28;20581;-78
2022/05/16 10:12:30;;;;;;;4.73;1.90;;;29.80;33.50;;;;;;5037852;28;20447;-78
2022/05/16 10:14:59;;;;;;;5.50;1.93;;;29.80;33.40;;;;;;5033864;28;20447;-78
2022/05/16 10:17:30;;;;;;;3.10;2.00;;;29.90;33.30;;;;;;5035072;28;20453;-79
2022/05/16 10:20:00;;;;;;;3.73;2.00;;;30.00;33.30;;;;;;5036021;28;20471;-78
2022/05/16 10:22:28;;;;;;;3.47;1.93;;;30.00;33.20;;;;;;5035144;28;20467;-78
2022/05/16 10:25:19;;;;;;;8.20;2.33;;;30.00;33.10;;;;;;5034801;28;20432;-78
2022/05/16 10:27:49;;;;;;;3.47;1.90;;;30.10;33.40;;;;;;5042044;28;20454;-78
2022/05/16 10:30:20;;;;;;;6.10;1.97;;;30.10;33.10;;;;;;5054509;28;20522;-78
2022/05/16 10:35:38;;;;;;;2.03;1.90;;;30.30;32.90;;;;;;5045440;28;20447;-78
2022/05/16 10:38:08;;;;;;;6.30;2.20;;;30.30;32.80;;;;;;5036046;28;20534;-78
2022/05/16 10:40:38;;;;;;;3.13;2.27;;;30.30;32.80;;;;;;5038485;28;20484;-78
2022/05/16 10:43:14;;;;;;;5.53;2.17;;;30.50;32.70;;;;;;5044760;28;20444;-78
2022/05/16 10:45:46;;;;;;;1.97;1.70;;;30.50;32.70;;;;;;5037096;28;20523;-78
2022/05/16 10:48:17;;;;;;;4.30;2.10;;;30.60;32.50;;;;;;5056034;28;20443;-78
2022/05/16 10:50:47;;;;;;;2.80;1.90;;;30.60;32.40;;;;;;5038774;28;20467;-78
2022/05/16 10:53:18;;;;;;;5.53;2.13;;;30.70;32.40;;;;;;5049926;28;20477;-78
2022/05/16 10:55:51;;;;;;;6.30;2.03;;;30.70;32.40;;;;;;5034332;28;20528;-78
2022/05/16 10:58:25;;;;;;;5.50;2.33;;;30.70;32.40;;;;;;5038520;28;20535;-78
2022/05/16 11:01:00;;;;;;;3.53;2.23;;;30.70;32.40;;;;;;5033329;28;20479;-77
2022/05/16 11:04:04;;;;;;;6.70;2.20;;;30.70;32.40;;;;;;5033449;28;20435;-77
2022/05/16 11:06:48;;;;;;;4.10;2.27;;;30.70;32.40;;;;;;5049027;28;20458;-77
2022/05/16 11:09:18;;;;;;;5.80;1.90;;;30.80;32.30;;;;;;5052749;28;20449;-77
2022/05/16 11:11:52;;;;;;;2.77;2.03;;;30.90;32.20;;;;;;5053246;28;20442;-78
2022/05/16 11:14:22;;;;;;;2.03;1.77;;;30.90;32.30;;;;;;5053237;28;20522;-78
2022/05/16 11:16:51;;;;;;;4.10;2.10;;;30.90;32.00;;;;;;5053364;28;20473;-78
2022/05/16 11:19:23;;;;;;;2.07;1.97;;;30.90;32.10;;;;;;5051518;28;20493;-77
2022/05/16 11:21:58;;;;;;;5.30;1.80;;;30.90;32.10;;;;;;5033193;28;20442;-78
2022/05/16 11:24:32;;;;;;;5.63;2.07;;;30.90;32.00;;;;;;5032648;28;20516;-77
2022/05/16 11:27:09;;;;;;;1.93;1.73;;;31.00;32.20;;;;;;5034304;28;20526;-78
2022/05/16 11:29:41;;;;;;;4.17;1.73;;;31.10;32.10;;;;;;5033162;28;20472;-78
2022/05/16 11:32:18;;;;;;;5.73;1.77;;;31.10;32.00;;;;;;5035559;28;20447;-76
2022/05/16 11:34:56;;;;;;;5.40;2.00;;;31.10;32.00;;;;;;5052455;28;20534;-78
2022/05/16 11:37:31;;;;;;;6.00;2.43;;;31.10;32.10;;;;;;5053361;28;20446;-77
2022/05/16 11:40:01;;;;;;;5.60;2.07;;;31.10;32.30;;;;;;5033795;28;20478;-78
2022/05/16 11:42:34;;;;;;;5.23;2.00;;;31.20;32.20;;;;;;5033776;28;20454;-77
2022/05/16 11:45:09;;;;;;;7.73;1.80;;;31.20;32.10;;;;;;5033414;28;20434;-78
2022/05/16 11:47:39;;;;;;;7.33;2.23;;;31.20;32.10;;;;;;5052916;28;20449;-78
2022/05/16 11:50:30;;;;;;;12.37;3.33;;;31.10;32.20;;;;;;5050220;28;20425;-78
2022/05/16 11:53:10;;;;;;;6.93;2.40;;;31.10;32.40;;;;;;5030987;28;20439;-77
2022/05/16 12:01:29;;;;;;;8.87;2.17;;;31.10;32.40;;;;;;5031953;28;20483;-76
2022/05/16 12:04:05;;;;;;;5.57;2.10;;;31.10;32.40;;;;;;5032175;28;20435;-78
2022/05/16 12:06:34;;;;;;;1.90;1.80;;;31.10;32.40;;;;;;5032045;28;20478;-78
2022/05/16 12:09:20;;;;;;;3.80;2.40;;;31.10;32.40;;;;;;5032140;28;20414;-78
2022/05/16 12:11:53;;;;;;;2.70;2.37;;;31.10;32.40;;;;;;5032136;28;20503;-78
2022/05/16 12:14:29;;;;;;;2.27;2.00;;;31.10;32.50;;;;;;5031858;28;20458;-78
2022/05/16 12:16:59;;;;;;;3.63;2.20;;;31.20;32.50;;;;;;5031885;28;20440;-77
2022/05/16 12:19:33;;;;;;;3.33;1.83;;;31.20;32.60;;;;;;5031909;28;20471;-78
2022/05/16 12:22:05;;;;;;;3.80;2.30;;;31.20;32.50;;;;;;5031879;28;20467;-78
2022/05/16 12:24:59;;;;;;;3.03;2.00;;;31.30;32.60;;;;;;5031875;28;20443;-80
2022/05/16 12:27:29;;;;;;;2.20;2.00;;;31.30;32.50;;;;;;5031767;28;20439;-78
2022/05/16 12:30:01;;;;;;;2.40;1.90;;;31.20;32.60;;;;;;5031803;28;20460;-78
2022/05/16 12:32:47;;;;;;;4.10;2.47;;;31.20;32.70;;;;;;5031801;28;20463;-78
2022/05/16 12:35:16;;;;;;;2.90;1.80;;;31.30;32.50;;;;;;5031716;28;20471;-79
2022/05/16 12:37:45;;;;;;;4.07;2.20;;;31.10;32.70;;;;;;5031655;28;20450;-78
2022/05/16 12:40:38;;;;;;;2.23;2.13;;;31.10;32.80;;;;;;5031495;28;20475;-78
2022/05/16 12:43:23;;;;;;;2.57;2.40;;;31.00;33.00;;;;;;5031633;28;20469;-78
2022/05/16 12:46:33;;;;;;;3.73;2.00;;;31.00;33.20;;;;;;5031659;28;20446;-78
2022/05/16 12:49:15;;;;;;;2.23;2.03;;;31.00;33.00;;;;;;4998520;28;20439;-78
2022/05/16 12:51:51;;;;;;;2.50;1.90;;;31.00;33.20;;;;;;5031501;28;20439;-77
2022/05/16 12:54:44;;;;;;;5.50;2.10;;;31.00;33.30;;;;;;5031462;28;20530;-78
2022/05/16 12:57:34;;;;;;;2.87;2.20;;;30.90;33.20;;;;;;5031558;28;20449;-78
2022/05/16 13:00:05;;;;;;;2.87;1.93;;;31.00;33.50;;;;;;5031457;28;20467;-78
2022/05/16 13:02:39;;;;;;;2.80;1.90;;;31.00;33.30;;;;;;5031408;28;20534;-78
2022/05/16 13:05:11;;;;;;;2.47;2.13;;;31.10;33.20;;;;;;5031377;28;20478;-78
2022/05/16 13:07:44;;;;;;;2.10;2.00;;;31.10;33.20;;;;;;5031296;28;20459;-78
2022/05/16 13:10:18;;;;;;;2.40;2.00;;;31.20;33.20;;;;;;5031384;28;20550;-78
2022/05/16 13:12:52;;;;;;;2.17;1.97;;;31.20;33.10;;;;;;5031337;28;20530;-79
2022/05/16 13:15:28;;;;;;;1.90;1.80;;;31.20;33.10;;;;;;5031581;28;20449;-78
2022/05/16 13:17:58;;;;;;;2.03;1.93;;;31.10;33.20;;;;;;5031343;28;20435;-81
2022/05/16 13:20:37;;;;;;;2.73;1.80;;;31.20;33.30;;;;;;5031252;28;20558;-78
2022/05/16 13:23:05;;;;;;;2.00;1.73;;;31.10;33.20;;;;;;5030977;28;20447;-80
2022/05/16 13:29:21;;;;;;;2.07;1.87;;;31.00;33.30;;;;;;5031182;28;20514;-80
2022/05/16 13:31:07;;;;;;;2.10;2.00;;;30.90;33.60;;;;;;5031197;28;20467;-78
2022/05/16 13:33:39;;;;;;;2.37;2.07;;;30.80;33.70;;;;;;5031112;28;20454;-78
2022/05/16 13:36:15;;;;;;;1.97;1.80;;;30.80;33.70;;;;;;5030957;28;20447;-77